コペンハーゲン の空港の天気 - METARとTAF

コペンハーゲン国際空港 ( EKCH / CPH ) - デンマーク コペンハーゲン
飛行場実況気象(Metar)
観測時間09/25 22:50 CEST (09/25 20:50 UTC)
風向・風速西南西 4m/s
視程10km以上
天気現象
全天の8割程度の雲 雲底高度 1520m
気温13℃
湿度82%
気圧1006hPa
METAREKCH 252050Z AUTO 24007KT 9999 BKN050/// 13/10 Q1006 NOSIG
過去の天気等 Google飛行場航空写真 Wunderground天気予報

過去48時間のMETAR

飛行場予報(TAF)
発表時間: 9/25 19:08 CEST (9/25 17:08 UTC)
予報対象時間: 25日20時 CEST ~ 26日20時 CEST
風向・風速南 4m/s
視程10km以上
全天の4割程度の雲 雲底高度 610m
25日20時 CEST ~ 26日1時 CEST に一時的に
天気現象しゅう雨
全天の8割程度の雲 雲底高度 370m
全天の4割程度の積乱雲 雲底高度 610m
26日1時 CEST ~ 26日14時 CEST に一時的に
全天の4割程度の塔状積雲 雲底高度 610m
26日18時 CEST ~ 26日20時 CEST に一時的に
天気現象雨霧雨
TAF EKCH 251708Z 2518/2618 19008KT 9999 SCT020
TEMPO 2518/2523 SHRA BKN012 SCT020CB
TEMPO 2523/2612 SCT020TCU
TEMPO 2616/2618 RADZ